createdAt,value
2019-01-11T00:01:24.711Z,18.43
2019-01-11T00:12:16.836Z,23.00
2019-01-11T00:23:02.536Z,20.30
2019-01-11T00:28:18.809Z,17.33
2019-01-11T00:49:33.259Z,21.53
2019-01-11T00:54:37.533Z,14.97
2019-01-11T01:10:41.037Z,16.33
2019-01-11T01:15:45.601Z,18.43
2019-01-11T01:26:32.068Z,15.13
2019-01-11T01:36:51.575Z,16.13
2019-01-11T01:42:14.871Z,15.77
2019-01-11T01:47:19.167Z,14.40
2019-01-11T01:52:42.582Z,14.97
2019-01-11T01:57:47.105Z,15.20
2019-01-11T02:08:21.282Z,16.77
2019-01-11T02:13:25.527Z,15.90
2019-01-11T02:18:29.802Z,15.00
2019-01-11T02:23:34.033Z,15.23
2019-01-11T02:28:49.758Z,14.40
2019-01-11T02:33:54.013Z,13.50
2019-01-11T02:38:58.252Z,13.90
2019-01-11T02:49:31.658Z,13.87
2019-01-11T02:54:35.963Z,14.30
2019-01-11T02:59:40.548Z,14.13
2019-01-11T03:04:44.807Z,14.70
2019-01-11T03:09:49.083Z,14.73
2019-01-11T03:14:53.318Z,15.57
2019-01-11T03:20:16.540Z,16.83
2019-01-11T03:30:51.344Z,17.77
2019-01-11T03:35:55.589Z,17.30
2019-01-11T03:40:59.827Z,17.30
2019-01-11T03:46:04.071Z,17.10
2019-01-11T03:51:27.398Z,18.13
2019-01-11T03:56:31.635Z,18.07
2019-01-11T04:01:35.870Z,16.37
2019-01-11T04:11:50.080Z,14.43
2019-01-11T04:17:13.534Z,15.20
2019-01-11T04:22:37.017Z,14.50
2019-01-11T04:27:41.299Z,13.80
2019-01-11T04:32:45.568Z,14.13
2019-01-11T04:37:49.859Z,13.57
2019-01-11T04:42:54.102Z,14.17
2019-01-11T04:48:37.726Z,11.83
2019-01-11T04:53:41.966Z,11.83
2019-01-11T04:59:05.282Z,13.17
2019-01-11T05:04:09.606Z,11.50
2019-01-11T05:09:14.164Z,10.33
2019-01-11T05:14:18.407Z,11.37
2019-01-11T05:19:22.694Z,11.53
2019-01-11T05:34:59.732Z,10.03
2019-01-11T05:45:35.267Z,11.00
2019-01-11T05:50:58.572Z,13.30
2019-01-11T05:56:21.713Z,11.80
2019-01-11T06:01:25.947Z,13.03
2019-01-11T06:06:49.133Z,11.73
2019-01-11T06:12:12.435Z,10.97
2019-01-11T06:17:16.774Z,10.20
2019-01-11T06:22:21.015Z,10.30
2019-01-11T06:38:43.378Z,11.23
2019-01-11T06:54:08.390Z,10.40
2019-01-11T06:59:13.040Z,10.67
2019-01-11T07:04:17.274Z,10.10
2019-01-11T07:14:31.330Z,10.00
2019-01-11T07:25:44.341Z,9.93
2019-01-11T07:36:40.164Z,10.20
2019-01-11T07:41:56.864Z,12.03
2019-01-11T07:47:01.101Z,11.17
2019-01-11T07:52:45.042Z,11.40
2019-01-11T07:57:49.277Z,11.37
2019-01-11T08:08:08.821Z,11.43
2019-01-11T08:13:52.407Z,10.77
2019-01-11T08:24:46.289Z,13.23
2019-01-11T08:35:00.491Z,12.30
2019-01-11T08:45:47.378Z,12.23
2019-01-11T08:50:51.643Z,12.73
2019-01-11T09:06:35.968Z,14.53
2019-01-11T09:16:49.817Z,13.57
2019-01-11T09:21:54.104Z,14.70
2019-01-11T09:32:27.275Z,14.20
2019-01-11T09:37:31.509Z,16.53
2019-01-11T09:42:35.750Z,19.80
2019-01-11T09:47:51.706Z,21.13
2019-01-11T09:52:56.220Z,18.90
2019-01-11T09:58:19.533Z,16.07
2019-01-11T10:03:23.752Z,18.90
2019-01-11T10:08:27.994Z,17.60
2019-01-11T10:13:32.247Z,15.60
2019-01-11T10:18:55.655Z,15.97
2019-01-11T10:23:59.904Z,16.90
2019-01-11T10:29:23.212Z,15.00
2019-01-11T10:39:36.989Z,15.53
2019-01-11T10:44:41.245Z,13.77
2019-01-11T10:49:57.037Z,12.90
2019-01-11T10:55:01.271Z,13.30
2019-01-11T11:00:46.462Z,13.73
2019-01-11T11:05:50.691Z,13.53
2019-01-11T11:10:54.919Z,13.13
2019-01-11T11:26:59.667Z,11.80
2019-01-11T11:52:47.024Z,11.17
2019-01-11T11:57:51.270Z,9.77
2019-01-11T12:03:34.955Z,10.10
2019-01-11T12:08:39.204Z,8.83
2019-01-11T12:14:02.786Z,9.60
2019-01-11T12:24:36.074Z,8.30
2019-01-11T12:40:19.162Z,12.70
2019-01-11T12:45:42.467Z,9.10
2019-01-11T12:50:46.697Z,10.57
2019-01-11T12:55:51.173Z,8.77
2019-01-11T13:01:14.497Z,8.60
2019-01-11T13:06:37.912Z,8.93
2019-01-11T13:11:42.156Z,8.40
2019-01-11T13:16:46.402Z,8.17
2019-01-11T13:22:10.007Z,7.63
2019-01-11T13:33:02.430Z,7.57
2019-01-11T13:38:25.651Z,8.70
2019-01-11T13:43:29.908Z,8.57
2019-01-11T13:48:34.142Z,9.53
2019-01-11T13:53:38.372Z,10.43
2019-01-11T13:58:54.197Z,11.73
2019-01-11T14:04:10.153Z,11.90
2019-01-11T14:09:14.422Z,12.93
2019-01-11T14:19:28.904Z,16.53
2019-01-11T14:24:52.287Z,14.90
2019-01-11T14:35:26.122Z,15.23
2019-01-11T14:56:19.801Z,12.57
2019-01-11T15:06:52.919Z,13.50
2019-01-11T15:11:57.159Z,11.87
2019-01-11T15:17:40.783Z,18.43
2019-01-11T15:28:15.235Z,12.03
2019-01-11T15:33:19.586Z,13.73
2019-01-11T15:54:12.499Z,13.67
2019-01-11T15:59:16.738Z,13.83
2019-01-11T16:04:40.251Z,14.47
2019-01-11T16:16:15.463Z,16.87
2019-01-11T16:21:38.787Z,13.30
2019-01-11T16:26:43.013Z,11.67
2019-01-11T16:31:47.276Z,8.40
2019-01-11T16:37:30.882Z,8.20
2019-01-11T16:42:54.458Z,9.80
2019-01-11T16:53:27.879Z,14.97
2019-01-11T17:03:42.369Z,11.60
2019-01-11T17:08:46.645Z,9.63
2019-01-11T17:13:50.879Z,10.50
2019-01-11T17:29:33.898Z,13.53
2019-01-11T17:34:38.521Z,12.33
2019-01-11T17:39:42.761Z,13.17
2019-01-11T17:44:47.046Z,10.57
2019-01-11T17:55:42.126Z,10.30
2019-01-11T18:06:33.947Z,13.83
2019-01-11T18:16:48.182Z,16.63
2019-01-11T18:27:40.154Z,19.60
2019-01-11T18:38:31.997Z,20.87
2019-01-11T18:43:36.378Z,22.23
2019-01-11T18:54:09.543Z,22.53
2019-01-11T19:10:30.532Z,22.30
2019-01-11T19:15:46.924Z,19.30
2019-01-11T19:20:51.226Z,21.50
2019-01-11T19:25:55.500Z,21.67
2019-01-11T19:36:28.856Z,17.83
2019-01-11T19:41:33.104Z,14.30
2019-01-11T19:46:56.403Z,14.87
2019-01-11T19:52:00.697Z,10.70
2019-01-11T20:02:53.419Z,11.07
2019-01-11T20:08:37.084Z,11.50
2019-01-11T20:14:00.490Z,11.43
2019-01-11T20:19:44.219Z,10.43
2019-01-11T20:25:27.831Z,10.47
2019-01-11T20:30:51.138Z,10.40
2019-01-11T20:35:55.367Z,11.53
2019-01-11T20:41:18.681Z,11.77
2019-01-11T20:46:23.319Z,9.40
2019-01-11T20:56:56.863Z,8.67
2019-01-11T21:02:20.181Z,9.27
2019-01-11T21:07:43.489Z,10.10
2019-01-11T21:23:57.868Z,11.67
2019-01-11T21:29:02.182Z,12.33
2019-01-11T21:39:35.521Z,13.63
2019-01-11T21:44:39.781Z,11.93
2019-01-11T21:49:44.072Z,13.70
2019-01-11T21:55:07.319Z,12.70
2019-01-11T22:06:24.626Z,13.13
2019-01-11T22:11:28.848Z,9.67
2019-01-11T22:22:01.706Z,11.00
2019-01-11T22:27:17.559Z,11.90
2019-01-11T22:32:21.856Z,10.43
2019-01-11T22:37:26.115Z,10.17
2019-01-11T22:42:30.350Z,9.30
2019-01-11T22:47:34.939Z,9.77
2019-01-11T22:52:58.243Z,10.27
2019-01-11T23:03:50.429Z,8.33
2019-01-11T23:08:54.706Z,8.23
2019-01-11T23:14:17.996Z,7.80
2019-01-11T23:25:10.405Z,5.30
2019-01-11T23:30:26.568Z,6.43
2019-01-11T23:40:41.059Z,5.40
2019-01-11T23:45:45.565Z,5.00
2019-01-11T23:51:08.862Z,4.97
2019-01-11T23:56:13.145Z,5.47
